This is the latest recevied weather packets stored in our database for station/object KI2K. If no packets are shown the sender has not sent any weather packets the latest 1 day(s).
| Time | Temp. | Humidity | Pressure | Rain* | Wind** | Luminosity | Snow |
|---|---|---|---|---|---|---|---|
| 1778093181 | 13.89° C | 66% | 1013.2 hPa | 0 mm | - | 270 W/m² | - |
| 1778091060 | 12.78° C | 67% | 1013.5 hPa | 0 mm | - | 191 W/m² | - |
| 1778089240 | 12.78° C | 64% | 1013.4 hPa | 0 mm | - | 258 W/m² | - |
| 1778088938 | 12.78° C | 65% | 1013.5 hPa | 0 mm | - | 210 W/m² | - |
| 1778087726 | 12.78° C | 65% | 1013.6 hPa | 0 mm | - | 196 W/m² | - |
| 1778086818 | 13.33° C | 66% | 1013.5 hPa | 0 mm | - | 162 W/m² | - |
| 1778086516 | 13.33° C | 64% | 1013.5 hPa | 0 mm | - | 162 W/m² | - |
| 1778085601 | 12.78° C | 63% | 1013.6 hPa | 0 mm | - | 217 W/m² | - |
| 1778085296 | 12.78° C | 65% | 1013.7 hPa | 0 mm | - | 205 W/m² | - |
| 1778084688 | 13.33° C | 58% | 1013.4 hPa | 0 mm | - | 173 W/m² | - |
| 1778084380 | 13.33° C | 63% | 1013.5 hPa | 0 mm | - | 176 W/m² | - |
| 1778084078 | 13.33° C | 64% | 1013.3 hPa | 0 mm | - | 232 W/m² | - |
| 1778083775 | 13.33° C | 62% | 1013.1 hPa | 0 mm | - | 260 W/m² | - |
| 1778081446 | 12.78° C | 69% | 1013 hPa | 0 mm | - | 228 W/m² | - |
| 1778080841 | 12.78° C | 68% | 1013.4 hPa | 0 mm | - | 198 W/m² | - |
| 1778080539 | 12.78° C | 68% | 1013 hPa | 0 mm | - | 234 W/m² | - |
| 1778079320 | 12.78° C | 71% | 1013.3 hPa | 0 mm | - | 553 W/m² | - |
| 1778078714 | 12.22° C | 74% | 1013.3 hPa | 0 mm | - | 556 W/m² | - |
| 1778078109 | 11.67° C | 74% | 1013.2 hPa | 0 mm | - | 430 W/m² | - |
| 1778076295 | 11.11° C | 77% | 1012.8 hPa | 0 mm | - | 255 W/m² | - |
| 1778075385 | 10.56° C | 82% | 1012.5 hPa | 0 mm | - | 518 W/m² | - |
| 1778075081 | 10.56° C | 83% | 1012.7 hPa | 0 mm | - | 232 W/m² | - |
| 1778074172 | 11.11° C | 86% | 1012.8 hPa | 0 mm | - | 264 W/m² | - |
| 1778073263 | 11.11° C | 90% | 1012.5 hPa | 0 mm | - | 325 W/m² | - |
| 1778070237 | 8.33° C | 99% | 1012.2 hPa | 0 mm | - | 153 W/m² | - |
* Rain latest hour (hover to see other rain measurements)
** Current wind speed in m/s (hover to see current wind gust speed)